Time;durP1;ratioP1;P1;durP2;ratioP2;P2;SDS_P1;SDS_P2;PMS_P1;PMS_P2;Temp;Humidity;BMP_temperature;BMP_pressure;BME280_temperature;BME280_humidity;BME280_pressure;Samples;Min_cycle;Max_cycle;Signal;HPM_P1;HPM_P2
2023/01/27 00:02:55;;;;;;;29.37;19.37;;;;;;;4.85;58.99;99036.53;7005634;28;20228;-81
2023/01/27 00:06:17;;;;;;;31.47;21.10;;;;;;;4.40;59.34;98973.84;7003236;28;20360;-81
2023/01/27 00:09:40;;;;;;;29.90;18.90;;;;;;;4.63;59.35;99044.34;7004052;28;20207;-81
2023/01/27 00:16:41;;;;;;;39.10;21.73;;;;;;;4.64;60.07;99041.50;7003351;28;20223;-80
2023/01/27 00:20:05;;;;;;;29.90;19.23;;;;;;;4.26;60.26;99028.66;7025622;28;20206;-81
2023/01/27 00:27:08;;;;;;;35.90;21.30;;;;;;;4.27;60.28;99032.19;7029528;28;20233;-81
2023/01/27 00:30:30;;;;;;;35.97;22.13;;;;;;;4.67;59.91;99033.16;7034242;28;20209;-81
2023/01/27 00:33:53;;;;;;;39.53;23.07;;;;;;;4.78;59.96;99026.69;7047983;28;20232;-80
2023/01/27 00:37:15;;;;;;;31.27;20.43;;;;;;;4.61;59.54;99025.81;7036165;28;20221;-81
2023/01/27 00:40:37;;;;;;;35.97;22.20;;;;;;;4.62;59.51;99030.16;7033450;28;20284;-81
2023/01/27 00:43:58;;;;;;;39.87;24.10;;;;;;;4.76;59.95;99042.88;7010869;28;20205;-81
2023/01/27 00:47:20;;;;;;;38.30;22.40;;;;;;;4.74;59.87;99044.91;7005400;28;20286;-80
2023/01/27 00:50:41;;;;;;;32.37;20.83;;;;;;;4.87;59.80;99025.72;7005905;28;20300;-81
2023/01/27 00:54:05;;;;;;;37.00;21.60;;;;;;;4.80;59.03;99025.53;7005660;28;20210;-80
2023/01/27 00:57:26;;;;;;;33.10;21.07;;;;;;;4.63;59.43;99033.66;7004525;28;20226;-81
2023/01/27 01:00:48;;;;;;;37.87;22.33;;;;;;;4.79;59.64;99042.53;7005681;28;20237;-81
2023/01/27 01:04:09;;;;;;;36.20;21.53;;;;;;;4.66;59.14;99044.03;7005194;28;20681;-81
2023/01/27 01:07:31;;;;;;;40.03;23.43;;;;;;;4.67;59.86;99041.16;7005233;28;20313;-81
2023/01/27 01:10:54;;;;;;;38.87;23.30;;;;;;;4.68;59.91;99048.22;7005548;28;20254;-81
2023/01/27 01:14:15;;;;;;;34.53;21.47;;;;;;;4.61;59.62;99022.31;7006235;28;20217;-81
2023/01/27 01:17:37;;;;;;;37.33;23.10;;;;;;;4.89;59.33;99053.13;7005247;28;20363;-81
2023/01/27 01:20:58;;;;;;;45.30;24.40;;;;;;;4.48;59.97;98995.25;7006140;28;20788;-81
2023/01/27 01:24:20;;;;;;;39.43;24.40;;;;;;;4.65;59.53;99032.50;7005384;28;20250;-80
2023/01/27 01:27:45;;;;;;;38.57;23.53;;;;;;;4.46;60.30;99050.63;7004531;28;20289;-80
2023/01/27 01:31:08;;;;;;;38.73;24.80;;;;;;;4.35;61.03;99056.22;7006011;28;20356;-81
2023/01/27 01:34:29;;;;;;;44.20;25.87;;;;;;;4.55;60.12;99047.81;7005856;28;20259;-81
2023/01/27 01:37:51;;;;;;;39.80;24.70;;;;;;;4.61;59.89;99035.66;7006382;28;20314;-81
2023/01/27 01:41:15;;;;;;;41.47;25.23;;;;;;;4.51;59.49;99014.44;7007778;28;20282;-81
2023/01/27 01:44:42;;;;;;;39.90;25.27;;;;;;;4.79;59.67;99039.06;7007962;28;20758;-80
2023/01/27 01:48:08;;;;;;;38.40;24.30;;;;;;;4.54;59.87;98999.94;7007059;28;20311;-81
2023/01/27 01:51:32;;;;;;;41.63;25.03;;;;;;;4.89;59.17;99039.75;7007441;28;20198;-81
2023/01/27 01:54:56;;;;;;;36.93;22.03;;;;;;;4.50;59.29;99035.97;7005741;28;20467;-81
2023/01/27 01:58:19;;;;;;;37.03;22.00;;;;;;;4.59;59.12;99032.31;7006758;28;20693;-81
2023/01/27 02:01:42;;;;;;;34.13;22.57;;;;;;;4.31;59.35;99031.69;7007020;28;20210;-81
2023/01/27 02:05:07;;;;;;;36.83;22.07;;;;;;;4.22;59.40;99000.66;7005736;28;20601;-81
2023/01/27 02:08:31;;;;;;;36.40;22.03;;;;;;;4.51;59.62;99027.78;7006860;28;20229;-81
2023/01/27 02:11:52;;;;;;;41.83;25.03;;;;;;;4.50;59.52;99026.13;7006718;28;20209;-81
2023/01/27 02:15:14;;;;;;;42.00;24.70;;;;;;;4.61;59.55;99027.66;7006351;28;20292;-81
2023/01/27 02:18:38;;;;;;;38.00;21.97;;;;;;;4.52;59.46;99013.44;7006176;28;20306;-81
2023/01/27 02:22:01;;;;;;;39.47;21.60;;;;;;;4.64;58.99;99016.63;7006449;28;20269;-81
2023/01/27 02:25:26;;;;;;;37.20;22.30;;;;;;;4.75;58.93;99019.00;7005628;28;20574;-81
2023/01/27 02:28:55;;;;;;;33.37;20.37;;;;;;;4.70;58.90;98997.28;7004526;28;20326;-81
2023/01/27 02:32:23;;;;;;;36.87;21.90;;;;;;;4.66;58.56;98969.25;7005727;28;20209;-81
2023/01/27 02:35:50;;;;;;;34.33;21.53;;;;;;;4.44;58.87;98970.72;7005683;28;20193;-81
2023/01/27 02:39:14;;;;;;;31.77;18.80;;;;;;;4.56;58.50;99019.28;7005591;28;20245;-81
2023/01/27 02:42:35;;;;;;;28.97;18.47;;;;;;;4.61;58.59;99001.78;7020041;28;20201;-81
2023/01/27 02:45:58;;;;;;;31.10;18.13;;;;;;;4.04;59.27;99028.41;7018722;28;20258;-81
2023/01/27 02:49:19;;;;;;;35.00;20.10;;;;;;;4.49;59.41;99024.44;7015297;28;20885;-80
2023/01/27 02:52:41;;;;;;;31.27;19.80;;;;;;;4.27;58.99;99019.69;7014618;28;20343;-80
2023/01/27 02:56:03;;;;;;;30.67;20.03;;;;;;;4.16;59.18;98987.09;7012114;28;20544;-80
2023/01/27 02:59:24;;;;;;;34.90;19.53;;;;;;;4.19;59.22;98995.63;7025048;28;20221;-81
2023/01/27 03:02:47;;;;;;;29.33;18.93;;;;;;;4.40;59.20;98990.72;7040825;28;20272;-81
2023/01/27 03:06:08;;;;;;;30.80;18.87;;;;;;;4.58;58.76;99003.94;7039277;28;20315;-82
2023/01/27 03:09:30;;;;;;;31.77;19.07;;;;;;;4.24;59.24;99004.00;7037168;28;20253;-81
2023/01/27 03:12:51;;;;;;;29.07;18.67;;;;;;;4.68;58.55;98986.78;7037028;28;20694;-80
2023/01/27 03:19:53;;;;;;;26.60;18.13;;;;;;;4.08;59.92;99027.09;7031432;28;20587;-81
2023/01/27 03:23:16;;;;;;;26.87;17.17;;;;;;;4.30;58.77;99018.53;7036431;28;20802;-82
2023/01/27 03:26:38;;;;;;;28.20;18.57;;;;;;;4.25;59.26;99029.66;7034641;28;20281;-82
2023/01/27 03:30:00;;;;;;;28.00;18.97;;;;;;;4.45;59.06;99016.91;7035545;28;20210;-82
2023/01/27 03:33:22;;;;;;;32.37;17.83;;;;;;;4.51;58.93;99026.94;7035543;28;20290;-82
2023/01/27 03:47:42;;;;;;;34.27;20.07;;;;;;;4.82;59.03;99012.84;7034447;28;20229;-82
2023/01/27 03:51:06;;;;;;;37.73;19.80;;;;;;;4.59;59.11;98985.09;7033703;28;20210;-82
2023/01/27 03:54:28;;;;;;;32.70;21.73;;;;;;;4.83;58.55;99019.84;7032748;28;20213;-82
2023/01/27 03:57:50;;;;;;;34.30;21.07;;;;;;;4.56;58.68;98971.22;7033949;28;20769;-82
2023/01/27 04:01:17;;;;;;;38.37;21.27;;;;;;;4.52;59.18;98991.22;7033500;28;20288;-82
2023/01/27 04:08:18;;;;;;;35.03;20.77;;;;;;;4.75;59.65;99021.66;7033507;28;20220;-82
2023/01/27 04:11:57;;;;;;;35.40;21.07;;;;;;;4.47;59.52;98982.88;7033843;28;20280;-82
2023/01/27 04:15:19;;;;;;;35.03;20.33;;;;;;;4.61;59.31;98999.09;7033071;28;20754;-82
2023/01/27 04:18:40;;;;;;;31.37;19.23;;;;;;;4.80;58.95;98998.00;7032929;28;20737;-82
2023/01/27 04:22:02;;;;;;;34.37;19.37;;;;;;;4.80;58.97;99024.69;7031298;28;20209;-82
2023/01/27 04:25:24;;;;;;;32.00;18.97;;;;;;;4.62;59.39;99021.31;7032220;28;20720;-81
2023/01/27 04:28:47;;;;;;;29.80;18.70;;;;;;;4.75;58.96;99019.84;7031957;28;20229;-82
2023/01/27 04:32:10;;;;;;;32.90;19.93;;;;;;;4.80;58.78;99025.53;7033000;28;20670;-81
2023/01/27 04:35:32;;;;;;;30.47;18.10;;;;;;;4.81;58.73;99029.03;7032883;28;20287;-82
2023/01/27 04:38:53;;;;;;;29.47;17.97;;;;;;;4.93;58.19;99023.22;7033320;28;20313;-82
2023/01/27 04:42:15;;;;;;;31.07;19.87;;;;;;;4.83;58.79;99029.72;7033199;28;20205;-82
2023/01/27 04:45:37;;;;;;;34.37;19.70;;;;;;;4.99;57.99;98998.53;7032369;28;20314;-81
2023/01/27 04:48:59;;;;;;;33.87;20.10;;;;;;;4.36;58.20;98970.69;7033439;28;20837;-82
2023/01/27 04:52:20;;;;;;;33.27;20.33;;;;;;;4.35;59.57;99001.03;7034444;28;20641;-83
2023/01/27 04:55:44;;;;;;;34.23;20.80;;;;;;;4.64;59.27;99020.16;7046911;28;20224;-82
2023/01/27 04:59:07;;;;;;;33.70;20.13;;;;;;;4.70;58.68;99038.19;7043980;28;20366;-81
2023/01/27 05:02:30;;;;;;;30.00;18.33;;;;;;;4.41;59.16;99039.56;7041315;28;20720;-81
2023/01/27 05:05:51;;;;;;;27.47;17.23;;;;;;;4.53;58.65;99048.97;7039869;28;20717;-81
2023/01/27 05:09:13;;;;;;;29.73;15.93;;;;;;;4.45;58.97;99051.63;7038808;28;20707;-81
2023/01/27 05:12:35;;;;;;;27.67;16.80;;;;;;;4.35;58.28;98987.69;7038514;28;20219;-83
2023/01/27 05:16:07;;;;;;;25.50;15.57;;;;;;;5.01;57.64;99025.91;7037315;28;20291;-81
2023/01/27 05:19:30;;;;;;;25.70;16.93;;;;;;;5.10;56.70;99040.09;7036534;28;20310;-82
2023/01/27 05:23:33;;;;;;;26.37;17.40;;;;;;;4.89;58.01;99045.09;7035649;28;20261;-81
2023/01/27 05:26:33;;;;;;;26.27;16.03;;;;;;;5.11;57.06;99042.63;7033293;28;20231;-81
2023/01/27 05:29:54;;;;;;;27.47;16.93;;;;;;;5.05;56.45;99010.38;7033809;28;20265;-81
2023/01/27 05:33:16;;;;;;;25.60;17.13;;;;;;;5.29;56.37;99035.28;7037070;28;20243;-81
2023/01/27 05:36:38;;;;;;;29.00;17.83;;;;;;;4.98;56.96;99047.63;7038690;28;20341;-79
2023/01/27 05:40:00;;;;;;;25.07;16.77;;;;;;;4.81;56.83;99029.88;7039891;28;20296;-79
2023/01/27 05:43:21;;;;;;;26.80;16.53;;;;;;;4.79;57.41;99053.22;7043707;28;20242;-82
2023/01/27 05:46:43;;;;;;;24.10;15.33;;;;;;;4.47;57.08;99050.47;7044888;28;20313;-82
2023/01/27 05:50:05;;;;;;;20.87;14.50;;;;;;;4.79;56.87;99052.41;7046180;28;20229;-82
2023/01/27 05:53:28;;;;;;;28.43;16.60;;;;;;;4.36;56.75;98951.19;7047756;28;20203;-79
2023/01/27 05:56:50;;;;;;;26.97;16.80;;;;;;;4.82;57.13;99017.34;7048471;28;20225;-82
2023/01/27 06:00:12;;;;;;;29.03;17.03;;;;;;;4.93;57.04;99041.94;7043085;28;20208;-83
2023/01/27 06:03:34;;;;;;;24.07;16.07;;;;;;;4.95;56.60;99028.41;7029454;28;20714;-83
2023/01/27 06:06:55;;;;;;;23.67;15.70;;;;;;;4.67;57.38;99037.69;7011000;28;20316;-82
2023/01/27 06:10:18;;;;;;;25.57;16.73;;;;;;;4.83;56.56;99051.91;7012071;28;20359;-81
2023/01/27 06:13:40;;;;;;;31.00;18.73;;;;;;;4.68;57.60;99055.38;7006833;28;20246;-80
2023/01/27 06:17:02;;;;;;;32.40;18.47;;;;;;;4.61;57.00;98999.09;7008948;28;20225;-80
2023/01/27 06:20:24;;;;;;;31.70;19.07;;;;;;;5.21;56.26;99062.03;7006638;28;20204;-80
2023/01/27 06:23:45;;;;;;;36.17;19.03;;;;;;;4.97;56.86;99043.28;7005539;28;20217;-80
2023/01/27 06:27:09;;;;;;;27.77;18.27;;;;;;;5.06;56.46;99069.00;7004431;28;20306;-78
2023/01/27 06:30:31;;;;;;;26.20;16.40;;;;;;;4.76;57.24;99060.72;7004012;28;20209;-81
2023/01/27 06:33:52;;;;;;;28.80;18.67;;;;;;;4.88;56.61;99043.41;7005042;28;20270;-80
2023/01/27 06:37:14;;;;;;;35.97;20.13;;;;;;;5.02;56.98;99070.31;7004079;28;20837;-80
2023/01/27 06:40:35;;;;;;;30.57;19.10;;;;;;;5.21;56.63;99074.53;7004450;28;20296;-80
2023/01/27 06:43:58;;;;;;;34.80;21.63;;;;;;;4.86;57.77;99077.47;7002220;28;20209;-79
2023/01/27 06:47:20;;;;;;;28.80;19.30;;;;;;;5.07;57.40;99073.34;7003572;28;20259;-79
2023/01/27 06:50:41;;;;;;;38.17;18.70;;;;;;;4.39;57.31;99044.25;7004720;28;20296;-80
2023/01/27 06:54:03;;;;;;;22.23;15.63;;;;;;;4.73;56.58;99064.56;7006273;28;20290;-80
2023/01/27 06:57:25;;;;;;;23.33;15.80;;;;;;;5.14;56.47;99108.28;7006870;28;20554;-80
2023/01/27 07:00:48;;;;;;;24.50;14.87;;;;;;;5.01;56.33;99111.41;7006291;28;20297;-80
2023/01/27 07:04:09;;;;;;;20.83;13.90;;;;;;;4.81;56.74;99102.00;7006589;28;20277;-80
2023/01/27 07:07:30;;;;;;;24.93;13.90;;;;;;;4.91;55.76;99099.19;7010872;28;20396;-80
2023/01/27 07:10:52;;;;;;;23.30;14.67;;;;;;;5.10;55.85;99114.94;7007897;28;20268;-80
2023/01/27 07:14:13;;;;;;;21.33;13.83;;;;;;;4.76;56.04;99082.09;7006323;28;20314;-80
2023/01/27 07:17:36;;;;;;;19.50;13.43;;;;;;;5.42;55.18;99118.50;7006028;28;20312;-80
2023/01/27 07:20:58;;;;;;;20.80;13.87;;;;;;;5.06;55.30;99118.91;7006866;28;20350;-80
2023/01/27 07:24:19;;;;;;;21.43;14.00;;;;;;;5.45;54.20;99109.31;7006107;28;20210;-80
2023/01/27 07:27:43;;;;;;;20.23;12.77;;;;;;;4.77;54.56;99135.34;7006368;28;20367;-80
2023/01/27 07:31:05;;;;;;;18.20;13.40;;;;;;;3.68;56.92;99145.00;7005956;28;20719;-80
2023/01/27 07:34:28;;;;;;;16.97;11.43;;;;;;;4.75;55.25;99142.72;7005125;28;20381;-80
2023/01/27 07:37:49;;;;;;;19.10;13.23;;;;;;;4.99;54.78;99153.47;7006213;28;20316;-80
2023/01/27 07:41:11;;;;;;;17.57;12.37;;;;;;;4.48;55.66;99134.88;7005613;28;20671;-80
2023/01/27 07:44:32;;;;;;;15.33;12.57;;;;;;;4.54;54.74;99109.41;7005093;28;20292;-80
2023/01/27 07:47:57;;;;;;;21.40;12.70;;;;;;;4.28;54.95;99097.91;7005075;28;20244;-80
2023/01/27 07:51:19;;;;;;;15.63;11.77;;;;;;;4.54;54.36;99136.09;7004531;28;20245;-80
2023/01/27 07:54:41;;;;;;;15.47;11.10;;;;;;;4.49;54.90;99163.25;7004568;28;20207;-80
2023/01/27 07:58:02;;;;;;;17.73;11.93;;;;;;;4.24;55.41;99147.28;7005250;28;20222;-80
2023/01/27 08:01:24;;;;;;;16.87;11.63;;;;;;;4.65;55.63;99165.19;7005727;28;20376;-80
2023/01/27 08:04:48;;;;;;;17.40;12.73;;;;;;;4.53;54.79;99140.59;7004643;28;20235;-80
2023/01/27 08:08:11;;;;;;;17.07;11.60;;;;;;;4.24;55.04;99109.91;7005038;28;20355;-80
2023/01/27 08:11:33;;;;;;;16.27;12.20;;;;;;;4.57;55.28;99160.66;7005392;28;20236;-79
2023/01/27 08:14:54;;;;;;;15.70;11.40;;;;;;;4.76;54.47;99165.75;7004868;28;20194;-80
2023/01/27 08:18:16;;;;;;;20.23;14.00;;;;;;;4.24;55.84;99163.28;7005183;28;20302;-80
2023/01/27 08:21:37;;;;;;;23.33;15.30;;;;;;;4.51;54.97;99173.78;7005896;28;20284;-80
2023/01/27 08:25:00;;;;;;;19.50;12.53;;;;;;;4.85;55.45;99174.63;7004286;28;20263;-80
2023/01/27 08:28:23;;;;;;;23.83;14.17;;;;;;;5.12;54.66;99182.44;7004222;28;20249;-80
2023/01/27 08:31:44;;;;;;;19.40;13.50;;;;;;;5.41;53.31;99180.16;7022988;28;20648;-80
2023/01/27 08:35:06;;;;;;;23.83;14.73;;;;;;;5.26;53.44;99179.13;7032721;28;20287;-80
2023/01/27 08:38:28;;;;;;;22.77;14.20;;;;;;;5.58;52.76;99181.88;7032669;28;20232;-80
2023/01/27 08:41:51;;;;;;;20.83;14.43;;;;;;;5.23;52.53;99174.94;7032467;28;20258;-80
2023/01/27 08:45:12;;;;;;;22.43;13.90;;;;;;;4.28;53.92;99162.81;7004003;28;20276;-80
2023/01/27 08:48:34;;;;;;;20.13;14.03;;;;;;;4.29;55.02;99193.84;7004760;28;20312;-79
2023/01/27 08:51:56;;;;;;;21.90;14.47;;;;;;;4.77;54.24;99193.31;7005419;28;20246;-80
2023/01/27 08:55:17;;;;;;;24.23;14.53;;;;;;;5.17;54.03;99202.31;7004568;28;20300;-80
2023/01/27 08:58:41;;;;;;;25.40;14.83;;;;;;;4.60;54.79;99188.88;7005241;28;20315;-80
2023/01/27 09:02:02;;;;;;;24.27;14.27;;;;;;;4.80;54.33;99193.81;7005029;28;20230;-79
2023/01/27 09:05:24;;;;;;;26.93;14.43;;;;;;;5.02;54.61;99187.88;7004157;28;20279;-80
2023/01/27 09:09:07;;;;;;;29.30;17.17;;;;;;;5.27;54.58;99184.31;7010954;28;20297;-80
2023/01/27 09:12:27;;;;;;;24.50;15.33;;;;;;;5.03;54.39;99186.91;7015441;28;20224;-80
2023/01/27 09:15:52;;;;;;;22.30;14.50;;;;;;;4.74;54.35;99172.25;7019500;28;20295;-80
2023/01/27 09:19:14;;;;;;;29.97;16.47;;;;;;;4.76;54.73;99196.94;7020784;28;20255;-80
2023/01/27 09:22:36;;;;;;;25.70;15.77;;;;;;;4.67;55.24;99189.91;7021233;28;20807;-80
2023/01/27 09:25:58;;;;;;;28.30;15.93;;;;;;;5.22;54.65;99175.94;7018862;28;20210;-80
2023/01/27 09:29:19;;;;;;;29.27;17.00;;;;;;;5.26;54.04;99176.47;7014041;28;20316;-80
2023/01/27 09:32:42;;;;;;;27.50;16.30;;;;;;;5.38;53.83;99191.19;7014042;28;20247;-79
2023/01/27 09:36:07;;;;;;;26.63;15.17;;;;;;;4.92;53.72;99184.53;7011103;28;20258;-80
2023/01/27 09:39:29;;;;;;;25.63;15.33;;;;;;;5.14;54.16;99189.25;7009589;28;20236;-79
2023/01/27 09:43:05;;;;;;;26.10;15.30;;;;;;;4.84;54.39;99195.16;7017959;28;20209;-80
2023/01/27 09:46:53;;;;;;;24.33;15.53;;;;;;;4.80;54.67;99206.31;7034962;28;20330;-79
2023/01/27 09:50:40;;;;;;;24.00;13.80;;;;;;;5.21;53.53;99192.13;7028995;28;20291;-80
2023/01/27 09:54:24;;;;;;;22.87;13.17;;;;;;;4.91;54.02;99203.38;7035672;28;20684;-79
2023/01/27 09:57:53;;;;;;;23.63;14.53;;;;;;;5.53;53.54;99201.09;7027247;28;20355;-80
2023/01/27 10:01:19;;;;;;;25.33;14.60;;;;;;;5.52;53.08;99187.88;7035393;28;20193;-79
2023/01/27 10:05:04;;;;;;;24.00;13.93;;;;;;;5.21;53.14;99195.66;7034636;28;20292;-79
2023/01/27 10:08:41;;;;;;;20.77;13.50;;;;;;;5.42;53.39;99195.22;7034773;28;20343;-80
2023/01/27 10:12:10;;;;;;;20.47;13.23;;;;;;;5.13;53.47;99176.91;7034732;28;20217;-79
2023/01/27 10:15:40;;;;;;;18.90;11.87;;;;;;;5.33;53.16;99193.50;7034457;28;20229;-80
2023/01/27 10:19:12;;;;;;;20.30;12.20;;;;;;;4.64;53.65;99198.22;7034467;28;20216;-79
2023/01/27 10:22:40;;;;;;;21.63;12.93;;;;;;;5.10;54.30;99198.63;7034288;28;20278;-79
2023/01/27 10:26:13;;;;;;;20.63;12.73;;;;;;;5.51;53.13;99197.75;7035864;28;20722;-79
2023/01/27 10:29:38;;;;;;;21.37;12.33;;;;;;;5.45;52.64;99210.94;7036324;28;20761;-78
2023/01/27 10:33:10;;;;;;;17.47;11.20;;;;;;;5.26;53.20;99220.03;7037379;28;20253;-80
2023/01/27 10:36:37;;;;;;;17.47;11.73;;;;;;;4.72;54.37;99208.97;7034179;28;20252;-80
2023/01/27 10:40:02;;;;;;;17.40;11.60;;;;;;;5.56;52.65;99202.59;7034579;28;20277;-81
2023/01/27 10:43:29;;;;;;;17.33;11.73;;;;;;;5.72;52.54;99211.47;7034691;28;20201;-80
2023/01/27 10:46:57;;;;;;;19.53;11.87;;;;;;;5.57;52.41;99199.78;7033233;28;20262;-80
2023/01/27 10:50:22;;;;;;;20.50;12.77;;;;;;;5.64;52.73;99213.31;7034078;28;20341;-80
2023/01/27 10:53:50;;;;;;;18.37;11.10;;;;;;;5.61;51.89;99208.28;7034425;28;20205;-80
2023/01/27 10:57:16;;;;;;;19.63;10.93;;;;;;;6.38;50.43;99198.00;7033324;28;20768;-81
2023/01/27 11:00:40;;;;;;;16.33;10.53;;;;;;;5.65;51.60;99151.63;7033822;28;20232;-80
2023/01/27 11:04:05;;;;;;;16.67;10.33;;;;;;;5.96;51.10;99192.81;7033464;28;20288;-81
2023/01/27 11:07:26;;;;;;;16.20;10.00;;;;;;;6.19;51.54;99199.16;7033189;28;20232;-80
2023/01/27 11:14:27;;;;;;;14.77;10.13;;;;;;;6.31;49.13;99191.66;7009945;28;20260;-80
2023/01/27 11:17:53;;;;;;;16.27;10.20;;;;;;;6.08;50.50;99162.03;7033593;28;20222;-80
2023/01/27 11:21:18;;;;;;;17.00;10.70;;;;;;;6.10;50.08;99185.97;7033516;28;20250;-81
2023/01/27 11:24:44;;;;;;;12.87;9.03;;;;;;;6.29;48.74;99157.00;7032802;28;20210;-80
2023/01/27 11:28:17;;;;;;;15.50;9.33;;;;;;;5.88;51.05;99173.25;7032124;28;20226;-79
2023/01/27 11:31:44;;;;;;;14.37;9.37;;;;;;;6.07;50.20;99189.81;7032982;28;20244;-81
2023/01/27 11:35:12;;;;;;;13.27;9.20;;;;;;;5.73;50.48;99181.06;7032207;28;20190;-80
2023/01/27 11:38:33;;;;;;;11.87;7.93;;;;;;;5.55;50.71;99193.72;7032885;28;20568;-79
2023/01/27 11:41:55;;;;;;;13.57;9.47;;;;;;;4.84;52.26;99187.13;7031132;28;20209;-80
2023/01/27 11:45:19;;;;;;;14.07;9.43;;;;;;;5.29;51.63;99189.47;7028166;28;20289;-79
2023/01/27 11:48:45;;;;;;;12.43;8.47;;;;;;;6.38;49.32;99174.72;7032209;28;20325;-80
2023/01/27 11:52:12;;;;;;;11.90;8.50;;;;;;;6.26;49.65;99141.25;7033002;28;20192;-79
2023/01/27 11:55:37;;;;;;;13.00;8.20;;;;;;;6.78;47.50;99173.81;7036206;28;20195;-80
2023/01/27 11:59:01;;;;;;;11.87;8.43;;;;;;;6.12;49.54;99176.75;7037235;28;20304;-81
2023/01/27 12:02:30;;;;;;;11.07;7.93;;;;;;;6.15;49.32;99176.44;7032775;28;20351;-79
2023/01/27 12:05:55;;;;;;;14.33;9.70;;;;;;;5.96;49.87;99160.69;7032308;28;20694;-80
2023/01/27 12:09:38;;;;;;;12.37;9.30;;;;;;;5.85;51.84;99158.34;7031975;28;20251;-81
2023/01/27 12:13:02;;;;;;;13.00;8.97;;;;;;;6.00;51.04;99164.72;7032033;28;20365;-79
2023/01/27 12:16:33;;;;;;;13.83;9.13;;;;;;;5.66;51.04;99109.69;7031903;28;20254;-80
2023/01/27 12:19:56;;;;;;;16.53;10.27;;;;;;;5.79;51.91;99163.50;7031997;28;20181;-80
2023/01/27 12:23:21;;;;;;;16.33;10.03;;;;;;;5.43;52.67;99157.59;7031819;28;20266;-79
2023/01/27 12:26:44;;;;;;;15.77;10.53;;;;;;;5.70;52.67;99145.78;7031720;28;20596;-80
2023/01/27 12:30:13;;;;;;;15.87;10.10;;;;;;;5.81;51.83;99156.19;7030666;28;20311;-79
2023/01/27 12:33:36;;;;;;;20.87;12.20;;;;;;;5.82;52.04;99157.84;7031835;28;20246;-79
2023/01/27 12:36:59;;;;;;;16.70;11.60;;;;;;;6.05;51.50;99150.81;7030775;28;20302;-79
2023/01/27 12:40:24;;;;;;;18.70;11.77;;;;;;;6.04;51.23;99107.19;7031077;28;20208;-80
2023/01/27 12:43:55;;;;;;;17.30;10.70;;;;;;;6.20;51.54;99149.97;7030767;28;20219;-81
2023/01/27 12:47:21;;;;;;;20.63;12.60;;;;;;;6.00;51.41;99140.63;7030815;28;20256;-80
2023/01/27 12:50:56;;;;;;;22.13;13.43;;;;;;;5.94;52.06;99143.13;7030160;28;20268;-79
2023/01/27 12:54:21;;;;;;;21.50;12.67;;;;;;;6.30;51.42;99131.91;7032785;28;20195;-81
2023/01/27 12:57:43;;;;;;;22.43;13.30;;;;;;;5.88;52.37;99133.94;7031358;28;20247;-80
2023/01/27 13:01:21;;;;;;;22.13;13.33;;;;;;;6.17;52.15;99123.56;7030942;28;20272;-79
2023/01/27 13:04:43;;;;;;;23.90;13.73;;;;;;;5.89;53.36;99134.81;7031061;28;20314;-80
2023/01/27 13:08:13;;;;;;;23.10;14.87;;;;;;;6.06;52.32;99131.94;7032351;28;20294;-81
2023/01/27 13:11:37;;;;;;;24.90;13.53;;;;;;;6.14;52.66;99139.94;7030321;28;20261;-81
2023/01/27 13:15:06;;;;;;;23.30;13.53;;;;;;;6.16;52.71;99135.28;7030061;28;20367;-79
2023/01/27 13:18:33;;;;;;;22.33;14.73;;;;;;;5.53;52.91;99115.50;7030540;28;20700;-80
2023/01/27 13:21:55;;;;;;;28.17;15.47;;;;;;;5.72;53.23;99144.59;7030985;28;20611;-79
2023/01/27 13:25:20;;;;;;;28.73;17.03;;;;;;;5.18;53.86;99126.47;7030951;28;20617;-80
2023/01/27 13:28:45;;;;;;;25.10;15.77;;;;;;;5.04;54.87;99143.16;7029660;28;20381;-81
2023/01/27 13:32:14;;;;;;;25.63;15.40;;;;;;;5.23;54.06;99100.09;7031198;28;20622;-80
2023/01/27 13:35:41;;;;;;;30.33;17.30;;;;;;;5.20;54.02;99156.53;7030721;28;20306;-80
2023/01/27 13:39:07;;;;;;;27.20;16.30;;;;;;;5.67;54.05;99165.66;7030642;28;20232;-80
2023/01/27 13:42:33;;;;;;;29.07;16.47;;;;;;;5.90;53.15;99165.91;7030560;28;20270;-80
2023/01/27 13:45:57;;;;;;;28.93;16.50;;;;;;;6.01;52.49;99171.75;7009887;28;20280;-80
2023/01/27 13:49:28;;;;;;;26.00;16.17;;;;;;;5.47;53.25;99166.97;7006017;28;20322;-81
2023/01/27 13:52:54;;;;;;;27.27;16.17;;;;;;;5.42;54.40;99169.31;7008421;28;20196;-80
2023/01/27 13:56:24;;;;;;;26.07;16.17;;;;;;;5.15;54.45;99156.22;7011194;28;20687;-80
2023/01/27 13:59:55;;;;;;;27.27;17.03;;;;;;;5.13;54.58;99178.75;7011623;28;20775;-80
2023/01/27 14:03:32;;;;;;;29.40;17.20;;;;;;;5.02;54.66;99182.53;7010069;28;20183;-80
2023/01/27 14:07:04;;;;;;;27.27;16.70;;;;;;;5.00;54.89;99173.00;7008658;28;20223;-80
2023/01/27 14:10:34;;;;;;;25.80;16.17;;;;;;;5.25;54.75;99199.66;7009239;28;20309;-81
2023/01/27 14:14:10;;;;;;;29.87;16.53;;;;;;;5.51;53.67;99176.34;7009232;28;20213;-80
2023/01/27 14:17:39;;;;;;;25.17;15.07;;;;;;;5.61;53.87;99195.75;7009296;28;20289;-81
2023/01/27 14:21:13;;;;;;;25.17;15.97;;;;;;;5.57;53.65;99188.22;7009180;28;20749;-80
2023/01/27 14:24:40;;;;;;;22.73;14.83;;;;;;;5.66;53.18;99181.91;7008814;28;20257;-80
2023/01/27 14:28:09;;;;;;;30.33;16.10;;;;;;;5.55;53.36;99192.91;7007119;28;20386;-80
2023/01/27 14:31:39;;;;;;;25.10;14.93;;;;;;;5.71;52.49;99195.63;7007822;28;20280;-80
2023/01/27 14:35:20;;;;;;;24.37;14.47;;;;;;;5.10;54.29;99192.44;7008958;28;20284;-81
2023/01/27 14:38:43;;;;;;;23.73;14.70;;;;;;;5.51;53.05;99203.09;7008386;28;20288;-80
2023/01/27 14:42:10;;;;;;;22.80;15.07;;;;;;;5.82;52.76;99206.84;7007936;28;20297;-80
2023/01/27 14:45:34;;;;;;;21.27;13.77;;;;;;;5.76;52.31;99195.94;7008276;28;20213;-81
2023/01/27 14:49:03;;;;;;;19.97;13.23;;;;;;;5.39;53.28;99207.09;7008278;28;20325;-80
2023/01/27 14:52:33;;;;;;;21.53;13.30;;;;;;;5.44;53.17;99203.91;7009322;28;20248;-80
2023/01/27 14:55:57;;;;;;;22.10;13.57;;;;;;;5.87;52.61;99209.88;7009685;28;20268;-80
2023/01/27 14:59:27;;;;;;;19.30;13.23;;;;;;;6.12;51.64;99206.22;7007895;28;20313;-81
2023/01/27 15:02:58;;;;;;;20.37;13.47;;;;;;;5.83;52.14;99205.84;7009271;28;20871;-81
2023/01/27 15:06:25;;;;;;;17.57;12.47;;;;;;;5.85;51.66;99203.84;7021175;28;20752;-81
2023/01/27 15:09:59;;;;;;;20.07;15.00;;;;;;;5.76;52.46;99206.63;7035987;28;20740;-80
2023/01/27 15:13:41;;;;;;;19.40;12.30;;;;;;;5.78;52.01;99204.66;7037782;28;20282;-80
2023/01/27 15:17:14;;;;;;;18.47;13.03;;;;;;;5.82;52.23;99197.97;7035811;28;20315;-81
2023/01/27 15:20:47;;;;;;;19.17;12.77;;;;;;;5.76;52.13;99194.13;7036699;28;20204;-81
2023/01/27 15:24:39;;;;;;;19.23;13.33;;;;;;;5.69;52.22;99192.25;7036567;28;20666;-81
2023/01/27 15:28:02;;;;;;;20.10;13.27;;;;;;;5.84;52.07;99188.78;7034739;28;20257;-81
2023/01/27 15:31:26;;;;;;;18.73;13.57;;;;;;;6.25;51.62;99185.09;7036539;28;20221;-82
2023/01/27 15:34:52;;;;;;;16.63;12.53;;;;;;;5.98;51.71;99177.44;7036484;28;20306;-80
2023/01/27 15:38:33;;;;;;;19.70;13.90;;;;;;;6.01;51.70;99203.84;7037638;28;20363;-81
2023/01/27 15:42:12;;;;;;;18.13;13.47;;;;;;;6.22;51.61;99203.34;7035714;28;20201;-81
2023/01/27 15:45:35;;;;;;;23.50;13.60;;;;;;;5.36;53.17;99226.09;7037499;28;20601;-81
2023/01/27 15:48:59;;;;;;;17.80;12.97;;;;;;;5.74;52.04;99201.47;7036746;28;20298;-81
2023/01/27 15:52:26;;;;;;;18.40;12.47;;;;;;;6.07;51.55;99210.41;7037321;28;20654;-81
2023/01/27 15:55:52;;;;;;;17.00;12.00;;;;;;;5.82;51.98;99222.06;7038426;28;20634;-81
2023/01/27 15:59:17;;;;;;;20.23;13.03;;;;;;;6.08;51.73;99241.50;7042133;28;20254;-80
2023/01/27 16:02:45;;;;;;;18.57;12.53;;;;;;;5.90;51.57;99232.78;7038385;28;20381;-81
2023/01/27 16:06:11;;;;;;;16.93;13.10;;;;;;;5.72;52.15;99238.22;7038908;28;20206;-81
2023/01/27 16:09:38;;;;;;;17.80;11.57;;;;;;;5.79;51.66;99223.19;7040104;28;20242;-81
2023/01/27 16:13:26;;;;;;;15.37;11.20;;;;;;;5.79;52.05;99260.66;7040374;28;20211;-81
2023/01/27 16:17:21;;;;;;;16.33;11.53;;;;;;;6.12;51.50;99262.41;7043927;28;20645;-81
2023/01/27 16:20:44;;;;;;;19.13;12.47;;;;;;;5.91;51.82;99254.03;7044133;28;20185;-81
2023/01/27 16:24:13;;;;;;;23.50;14.73;;;;;;;5.62;52.21;99274.16;7041013;28;20675;-81
2023/01/27 16:27:41;;;;;;;18.03;13.40;;;;;;;5.50;52.56;99251.38;7041231;28;20274;-81